Time;durP1;ratioP1;P1;durP2;ratioP2;P2;SDS_P1;SDS_P2;PMS_P1;PMS_P2;Temp;Humidity;BMP_temperature;BMP_pressure;BME280_temperature;BME280_humidity;BME280_pressure;Samples;Min_cycle;Max_cycle;Signal;HPM_P1;HPM_P2
2023/04/18 00:01:32;;;;;;;13.82;11.27;;;;;;;;;;4999480;28;20053;-76
2023/04/18 00:03:58;;;;;;;16.75;12.50;;;;;;;;;;5019173;28;20064;-77
2023/04/18 00:06:25;;;;;;;15.80;11.95;;;;;;;;;;5020954;28;20045;-77
2023/04/18 00:08:52;;;;;;;17.60;13.55;;;;;;;;;;5002832;28;20421;-77
2023/04/18 00:11:19;;;;;;;16.38;12.48;;;;;;;;;;5000467;28;20068;-77
2023/04/18 00:13:46;;;;;;;20.27;12.60;;;;;;;;;;4993690;28;20054;-77
2023/04/18 00:16:13;;;;;;;18.25;14.15;;;;;;;;;;4993768;28;20072;-77
2023/04/18 00:18:40;;;;;;;16.15;11.95;;;;;;;;;;4993201;28;20054;-77
2023/04/18 00:21:07;;;;;;;15.48;11.85;;;;;;;;;;4981165;28;20054;-76
2023/04/18 00:23:34;;;;;;;17.50;11.57;;;;;;;;;;4997297;28;20076;-76
2023/04/18 00:26:01;;;;;;;15.73;11.68;;;;;;;;;;4998565;28;20061;-77
2023/04/18 00:28:28;;;;;;;13.45;11.88;;;;;;;;;;5011480;28;20037;-77
2023/04/18 00:30:55;;;;;;;15.50;11.70;;;;;;;;;;4991502;28;20065;-77
2023/04/18 00:33:22;;;;;;;15.48;12.40;;;;;;;;;;4978158;28;20391;-77
2023/04/18 00:35:48;;;;;;;15.85;12.20;;;;;;;;;;4965396;28;20499;-78
2023/04/18 00:38:15;;;;;;;15.30;12.30;;;;;;;;;;4983147;28;20392;-77
2023/04/18 00:40:42;;;;;;;16.80;12.10;;;;;;;;;;4967697;28;20070;-77
2023/04/18 00:43:11;;;;;;;16.77;12.80;;;;;;;;;;4982661;28;20058;-77
2023/04/18 00:45:38;;;;;;;17.75;13.25;;;;;;;;;;4966673;28;20064;-78
2023/04/18 00:48:04;;;;;;;16.63;12.05;;;;;;;;;;4962560;28;20069;-77
2023/04/18 00:50:31;;;;;;;14.93;11.20;;;;;;;;;;4980335;28;20050;-77
2023/04/18 00:52:58;;;;;;;16.60;12.35;;;;;;;;;;4997804;28;20129;-77
2023/04/18 00:55:25;;;;;;;16.92;11.98;;;;;;;;;;4981512;28;20532;-76
2023/04/18 00:57:51;;;;;;;15.63;11.45;;;;;;;;;;4981284;28;20054;-77
2023/04/18 01:00:18;;;;;;;16.05;11.88;;;;;;;;;;4997033;28;20050;-77
2023/04/18 01:02:45;;;;;;;13.50;10.98;;;;;;;;;;4980833;28;20061;-77
2023/04/18 01:05:12;;;;;;;18.25;12.60;;;;;;;;;;4997439;28;20077;-77
2023/04/18 01:07:42;;;;;;;14.88;10.70;;;;;;;;;;4981541;28;20104;-77
2023/04/18 01:10:09;;;;;;;17.10;11.50;;;;;;;;;;4965949;28;20046;-77
2023/04/18 01:12:39;;;;;;;16.15;11.70;;;;;;;;;;4978813;28;20062;-77
2023/04/18 01:15:07;;;;;;;16.27;11.73;;;;;;;;;;4960930;28;20522;-76
2023/04/18 01:17:34;;;;;;;14.63;11.32;;;;;;;;;;4994816;28;20050;-76
2023/04/18 01:20:03;;;;;;;15.77;10.98;;;;;;;;;;4976822;28;20046;-77
2023/04/18 01:22:30;;;;;;;13.77;10.60;;;;;;;;;;4976929;28;20533;-77
2023/04/18 01:24:57;;;;;;;13.25;10.23;;;;;;;;;;4961040;28;20417;-76
2023/04/18 01:27:24;;;;;;;13.68;10.25;;;;;;;;;;4993983;28;20054;-77
2023/04/18 01:29:51;;;;;;;13.13;10.18;;;;;;;;;;4976575;28;20054;-77
2023/04/18 01:32:19;;;;;;;12.75;9.77;;;;;;;;;;4978038;28;20054;-77
2023/04/18 01:34:46;;;;;;;15.32;10.85;;;;;;;;;;4980632;28;20506;-77
2023/04/18 01:37:13;;;;;;;14.90;11.23;;;;;;;;;;4977671;28;20150;-77
2023/04/18 01:39:40;;;;;;;17.13;12.25;;;;;;;;;;4961083;28;20062;-76
2023/04/18 01:42:06;;;;;;;16.60;11.45;;;;;;;;;;4978261;28;20050;-78
2023/04/18 01:44:33;;;;;;;15.55;11.65;;;;;;;;;;4971890;28;20138;-77
2023/04/18 01:47:00;;;;;;;14.38;11.40;;;;;;;;;;4952476;28;20073;-75
2023/04/18 01:49:27;;;;;;;14.88;11.32;;;;;;;;;;4992578;28;20137;-75
2023/04/18 01:51:53;;;;;;;14.55;10.80;;;;;;;;;;4976178;28;20062;-75
2023/04/18 01:54:20;;;;;;;15.70;12.18;;;;;;;;;;4992066;28;20061;-74
2023/04/18 01:56:47;;;;;;;13.85;11.10;;;;;;;;;;4995468;28;20041;-78
2023/04/18 01:59:13;;;;;;;14.65;11.48;;;;;;;;;;4960049;28;20525;-76
2023/04/18 02:01:40;;;;;;;15.30;11.45;;;;;;;;;;4976057;28;20072;-76
2023/04/18 02:04:07;;;;;;;14.30;11.05;;;;;;;;;;4960633;28;20058;-77
2023/04/18 02:06:34;;;;;;;15.00;11.63;;;;;;;;;;4963035;28;20085;-78
2023/04/18 02:09:00;;;;;;;16.67;12.30;;;;;;;;;;4993225;28;20054;-76
2023/04/18 02:11:27;;;;;;;18.63;12.32;;;;;;;;;;4992191;28;20055;-77
2023/04/18 02:13:54;;;;;;;15.25;12.65;;;;;;;;;;4960212;28;20065;-77
2023/04/18 02:16:20;;;;;;;17.50;12.18;;;;;;;;;;4998512;28;20061;-78
2023/04/18 02:18:48;;;;;;;18.00;11.98;;;;;;;;;;4997993;28;20046;-78
2023/04/18 02:21:15;;;;;;;16.45;11.75;;;;;;;;;;4997495;28;20053;-77
2023/04/18 02:23:41;;;;;;;17.08;12.75;;;;;;;;;;4997881;28;20053;-78
2023/04/18 02:26:08;;;;;;;17.55;11.43;;;;;;;;;;4981937;28;20053;-78
2023/04/18 02:28:37;;;;;;;16.08;11.07;;;;;;;;;;4996931;28;20544;-78
2023/04/18 02:31:06;;;;;;;14.40;11.30;;;;;;;;;;4978153;28;20140;-77
2023/04/18 02:33:32;;;;;;;16.02;11.80;;;;;;;;;;4977300;28;20065;-77
2023/04/18 02:36:00;;;;;;;16.25;11.45;;;;;;;;;;4976978;28;20418;-77
2023/04/18 02:38:27;;;;;;;15.25;11.90;;;;;;;;;;4977085;28;20128;-77
2023/04/18 02:40:54;;;;;;;16.60;11.63;;;;;;;;;;4977041;28;20427;-78
2023/04/18 02:43:20;;;;;;;15.73;11.75;;;;;;;;;;4961374;28;20054;-78
2023/04/18 02:45:47;;;;;;;14.65;11.27;;;;;;;;;;4977690;28;20066;-77
2023/04/18 02:48:14;;;;;;;21.70;12.23;;;;;;;;;;4960038;28;20090;-77
2023/04/18 02:50:40;;;;;;;16.63;11.93;;;;;;;;;;4974934;28;20395;-77
2023/04/18 02:53:07;;;;;;;15.18;11.68;;;;;;;;;;4976134;28;20054;-76
2023/04/18 02:55:34;;;;;;;16.92;11.52;;;;;;;;;;4975995;28;20062;-77
2023/04/18 02:58:00;;;;;;;15.98;11.35;;;;;;;;;;4975647;28;20050;-77
2023/04/18 03:00:27;;;;;;;17.77;11.50;;;;;;;;;;4977893;28;20301;-79
2023/04/18 03:02:54;;;;;;;15.65;11.68;;;;;;;;;;4963168;28;20066;-78
2023/04/18 03:05:21;;;;;;;15.10;11.25;;;;;;;;;;4977939;28;20046;-76
2023/04/18 03:07:47;;;;;;;16.17;11.07;;;;;;;;;;4959264;28;20054;-76
2023/04/18 03:10:15;;;;;;;16.95;11.15;;;;;;;;;;4971637;28;20513;-76
2023/04/18 03:12:41;;;;;;;15.85;11.50;;;;;;;;;;5011040;28;20097;-76
2023/04/18 03:15:08;;;;;;;17.05;12.20;;;;;;;;;;4994431;28;20060;-77
2023/04/18 03:17:35;;;;;;;15.32;11.93;;;;;;;;;;4994598;28;20077;-77
2023/04/18 03:20:02;;;;;;;17.38;12.00;;;;;;;;;;4977795;28;20526;-76
2023/04/18 03:22:29;;;;;;;16.70;12.27;;;;;;;;;;4962354;28;20120;-75
2023/04/18 03:24:55;;;;;;;15.68;11.85;;;;;;;;;;4978155;28;20058;-76
2023/04/18 03:27:22;;;;;;;14.20;10.95;;;;;;;;;;4994241;28;20065;-73
2023/04/18 03:29:49;;;;;;;14.82;11.80;;;;;;;;;;4992365;28;20057;-74
2023/04/18 03:32:16;;;;;;;16.77;11.52;;;;;;;;;;4993931;28;20065;-74
2023/04/18 03:34:42;;;;;;;15.57;10.98;;;;;;;;;;4993898;28;20062;-74
2023/04/18 03:37:09;;;;;;;15.30;10.95;;;;;;;;;;4994214;28;20064;-74
2023/04/18 03:39:36;;;;;;;16.38;11.38;;;;;;;;;;4977840;28;20068;-74
2023/04/18 03:42:02;;;;;;;15.90;11.25;;;;;;;;;;4993776;28;20104;-76
2023/04/18 03:44:30;;;;;;;15.23;11.63;;;;;;;;;;4985904;28;20061;-76
2023/04/18 03:46:56;;;;;;;17.13;10.75;;;;;;;;;;4974323;28;20064;-77
2023/04/18 03:49:23;;;;;;;15.32;11.68;;;;;;;;;;4948142;28;20415;-76
2023/04/18 03:51:50;;;;;;;14.70;11.43;;;;;;;;;;4993670;28;20513;-76
2023/04/18 03:54:17;;;;;;;16.02;12.13;;;;;;;;;;4980052;28;20054;-77
2023/04/18 03:56:44;;;;;;;16.55;12.27;;;;;;;;;;4976981;28;20050;-76
2023/04/18 03:59:11;;;;;;;15.73;11.10;;;;;;;;;;4975357;28;20549;-76
2023/04/18 04:01:38;;;;;;;15.15;11.35;;;;;;;;;;4993661;28;20050;-77
2023/04/18 04:04:05;;;;;;;15.43;11.75;;;;;;;;;;4978919;28;20585;-76
2023/04/18 04:06:31;;;;;;;15.75;11.82;;;;;;;;;;4980648;28;20051;-76
2023/04/18 04:08:58;;;;;;;14.68;12.00;;;;;;;;;;4965610;28;20129;-75
2023/04/18 04:11:25;;;;;;;14.70;11.23;;;;;;;;;;4980994;28;20532;-75
2023/04/18 04:13:52;;;;;;;16.75;11.77;;;;;;;;;;4964923;28;20481;-75
2023/04/18 04:16:19;;;;;;;16.50;11.50;;;;;;;;;;4964749;28;20571;-76
2023/04/18 04:18:45;;;;;;;17.92;12.85;;;;;;;;;;4980445;28;20058;-75
2023/04/18 04:21:12;;;;;;;19.23;12.63;;;;;;;;;;4994440;28;20124;-75
2023/04/18 04:23:41;;;;;;;15.32;11.82;;;;;;;;;;4983743;28;20064;-75
2023/04/18 04:26:08;;;;;;;15.55;12.68;;;;;;;;;;5016140;28;20061;-74
2023/04/18 04:28:34;;;;;;;20.17;12.32;;;;;;;;;;5005654;28;20057;-75
2023/04/18 04:31:04;;;;;;;17.67;12.95;;;;;;;;;;5019655;28;20600;-75
2023/04/18 04:33:32;;;;;;;15.60;12.13;;;;;;;;;;5036032;28;20060;-75
2023/04/18 04:36:00;;;;;;;18.85;13.00;;;;;;;;;;5007058;28;20054;-76
2023/04/18 04:38:29;;;;;;;21.50;13.77;;;;;;;;;;5003527;28;20053;-75
2023/04/18 04:40:57;;;;;;;16.92;12.88;;;;;;;;;;5035757;28;20056;-74
2023/04/18 04:43:24;;;;;;;17.83;13.55;;;;;;;;;;5019636;28;20084;-74
2023/04/18 04:45:52;;;;;;;18.30;13.27;;;;;;;;;;5019902;28;20140;-75
2023/04/18 04:48:20;;;;;;;19.63;12.95;;;;;;;;;;5003501;28;20049;-74
2023/04/18 04:50:52;;;;;;;16.02;12.35;;;;;;;;;;5019578;28;20056;-75
2023/04/18 04:53:18;;;;;;;18.95;12.13;;;;;;;;;;5019947;28;20059;-77
2023/04/18 04:55:45;;;;;;;16.10;12.25;;;;;;;;;;5004509;28;20056;-75
2023/04/18 04:58:12;;;;;;;19.90;12.98;;;;;;;;;;5003067;28;20053;-75
2023/04/18 05:00:39;;;;;;;18.85;12.60;;;;;;;;;;5000440;28;20041;-75
2023/04/18 05:03:06;;;;;;;18.67;12.75;;;;;;;;;;5006209;28;20060;-73
2023/04/18 05:05:34;;;;;;;19.05;13.73;;;;;;;;;;4986460;28;20156;-74
2023/04/18 05:08:01;;;;;;;18.42;13.07;;;;;;;;;;4998426;28;20050;-74
2023/04/18 05:10:29;;;;;;;17.48;13.40;;;;;;;;;;4987900;28;20085;-75
2023/04/18 05:12:56;;;;;;;17.33;12.27;;;;;;;;;;4978106;28;20090;-74
2023/04/18 05:15:24;;;;;;;17.83;12.73;;;;;;;;;;4995848;28;20056;-74
2023/04/18 05:17:50;;;;;;;17.60;13.25;;;;;;;;;;4977379;28;20534;-74
2023/04/18 05:20:17;;;;;;;19.27;14.13;;;;;;;;;;4977829;28;20081;-74
2023/04/18 05:22:44;;;;;;;18.38;13.23;;;;;;;;;;4994742;28;20060;-74
2023/04/18 05:25:11;;;;;;;17.92;13.55;;;;;;;;;;4995958;28;20060;-75
2023/04/18 05:27:38;;;;;;;19.05;13.88;;;;;;;;;;4977124;28;20054;-74
2023/04/18 05:30:06;;;;;;;14.93;12.02;;;;;;;;;;4976671;28;20157;-73
2023/04/18 05:32:33;;;;;;;15.75;11.43;;;;;;;;;;4976944;28;20128;-74
2023/04/18 05:35:00;;;;;;;15.27;12.20;;;;;;;;;;4987382;28;20056;-75
2023/04/18 05:37:26;;;;;;;17.35;11.88;;;;;;;;;;4996343;28;20060;-75
2023/04/18 05:39:53;;;;;;;15.88;12.20;;;;;;;;;;4996366;28;20057;-74
2023/04/18 05:42:20;;;;;;;17.65;12.73;;;;;;;;;;4996631;28;20069;-74
2023/04/18 05:44:46;;;;;;;15.70;11.70;;;;;;;;;;4988020;28;20058;-75
2023/04/18 05:47:13;;;;;;;18.60;12.15;;;;;;;;;;4977958;28;20055;-79
2023/04/18 05:49:40;;;;;;;19.75;12.07;;;;;;;;;;4963799;28;20058;-77
2023/04/18 05:52:06;;;;;;;17.83;13.00;;;;;;;;;;4976301;28;20062;-78
2023/04/18 05:54:33;;;;;;;16.00;11.60;;;;;;;;;;4984074;28;20712;-76
2023/04/18 05:57:00;;;;;;;17.02;12.07;;;;;;;;;;5013706;28;20522;-74
2023/04/18 05:59:29;;;;;;;15.10;11.18;;;;;;;;;;5013627;28;20049;-73
2023/04/18 06:01:56;;;;;;;18.67;11.65;;;;;;;;;;4979337;28;20593;-73
2023/04/18 06:04:23;;;;;;;19.38;11.55;;;;;;;;;;4992224;28;20100;-73
2023/04/18 06:06:50;;;;;;;18.20;11.40;;;;;;;;;;4958816;28;20058;-73
2023/04/18 06:09:17;;;;;;;14.77;11.07;;;;;;;;;;4975014;28;20634;-73
2023/04/18 06:11:44;;;;;;;19.30;11.68;;;;;;;;;;4974840;28;20058;-73
2023/04/18 06:14:10;;;;;;;15.57;11.40;;;;;;;;;;4979123;28;20395;-73
2023/04/18 06:16:38;;;;;;;16.63;11.05;;;;;;;;;;4994147;28;20589;-73
2023/04/18 06:19:04;;;;;;;13.68;10.80;;;;;;;;;;4994142;28;20065;-73
2023/04/18 06:21:31;;;;;;;14.43;10.80;;;;;;;;;;4993587;28;20054;-73
2023/04/18 06:24:00;;;;;;;15.63;11.82;;;;;;;;;;4991660;28;20061;-72
2023/04/18 06:26:27;;;;;;;15.82;11.82;;;;;;;;;;4974578;28;20086;-74
2023/04/18 06:28:53;;;;;;;13.48;10.50;;;;;;;;;;4958948;28;20058;-73
2023/04/18 06:31:20;;;;;;;17.17;11.38;;;;;;;;;;4974420;28;20050;-74
2023/04/18 06:33:47;;;;;;;17.42;12.00;;;;;;;;;;4974153;28;20086;-74
2023/04/18 06:36:13;;;;;;;16.05;12.13;;;;;;;;;;4991850;28;20058;-75
2023/04/18 06:38:40;;;;;;;18.35;11.02;;;;;;;;;;4974653;28;20054;-75
2023/04/18 06:41:07;;;;;;;17.35;11.63;;;;;;;;;;4991358;28;20062;-76
2023/04/18 06:43:34;;;;;;;16.85;11.80;;;;;;;;;;4975121;28;20054;-74
2023/04/18 06:46:03;;;;;;;16.50;11.40;;;;;;;;;;4993901;28;20057;-73
2023/04/18 06:48:30;;;;;;;14.90;10.60;;;;;;;;;;4974138;28;20065;-74
2023/04/18 06:50:57;;;;;;;14.57;10.45;;;;;;;;;;4974142;28;20077;-74
2023/04/18 06:53:23;;;;;;;15.45;10.60;;;;;;;;;;4963876;28;20414;-74
2023/04/18 06:55:50;;;;;;;12.07;9.80;;;;;;;;;;4993845;28;20418;-75
2023/04/18 06:58:17;;;;;;;14.50;11.70;;;;;;;;;;4993357;28;20057;-74
2023/04/18 07:00:47;;;;;;;11.75;9.85;;;;;;;;;;4993194;28;20056;-74
2023/04/18 07:03:14;;;;;;;14.73;11.20;;;;;;;;;;4993237;28;20482;-74
2023/04/18 07:05:41;;;;;;;13.38;9.82;;;;;;;;;;4993224;28;20588;-74
2023/04/18 07:08:08;;;;;;;15.80;11.05;;;;;;;;;;4993781;28;20061;-75
2023/04/18 07:10:34;;;;;;;13.63;10.05;;;;;;;;;;4993630;28;20529;-75
2023/04/18 07:13:02;;;;;;;14.10;11.32;;;;;;;;;;4995972;28;20068;-77
2023/04/18 07:15:28;;;;;;;15.63;10.55;;;;;;;;;;4981101;28;20058;-80
2023/04/18 07:17:55;;;;;;;13.55;10.90;;;;;;;;;;4993014;28;20462;-74
2023/04/18 07:20:22;;;;;;;12.25;10.27;;;;;;;;;;4973839;28;20109;-74
2023/04/18 07:22:49;;;;;;;14.23;10.65;;;;;;;;;;4960925;28;20126;-74
2023/04/18 07:25:15;;;;;;;16.00;11.27;;;;;;;;;;4959392;28;20054;-74
2023/04/18 07:27:42;;;;;;;12.90;10.65;;;;;;;;;;4974054;28;20522;-74
2023/04/18 07:30:09;;;;;;;13.95;10.73;;;;;;;;;;4989869;28;20060;-75
2023/04/18 07:32:36;;;;;;;15.52;10.93;;;;;;;;;;4973152;28;20054;-74
2023/04/18 07:35:04;;;;;;;14.23;10.52;;;;;;;;;;4990508;28;20050;-75
2023/04/18 07:37:30;;;;;;;17.15;11.38;;;;;;;;;;4973999;28;20426;-76
2023/04/18 07:39:57;;;;;;;14.30;11.13;;;;;;;;;;4963450;28;20124;-77
2023/04/18 07:42:24;;;;;;;14.93;11.13;;;;;;;;;;4974325;28;20050;-76
2023/04/18 07:44:56;;;;;;;17.67;11.63;;;;;;;;;;4958948;28;20058;-73
2023/04/18 07:47:24;;;;;;;15.30;11.63;;;;;;;;;;4975295;28;20058;-74
2023/04/18 07:49:53;;;;;;;15.10;11.52;;;;;;;;;;4958975;28;20453;-73
2023/04/18 07:52:20;;;;;;;14.02;11.00;;;;;;;;;;4974343;28;20058;-72
2023/04/18 07:54:47;;;;;;;13.57;11.30;;;;;;;;;;4990183;28;20064;-73
2023/04/18 07:57:14;;;;;;;15.45;11.48;;;;;;;;;;4992993;28;20056;-73
2023/04/18 07:59:40;;;;;;;16.70;10.73;;;;;;;;;;4993469;28;20510;-73
2023/04/18 08:02:07;;;;;;;12.60;10.48;;;;;;;;;;4993521;28;20065;-73
2023/04/18 08:04:34;;;;;;;13.43;10.27;;;;;;;;;;4963822;28;20054;-73
2023/04/18 08:07:01;;;;;;;14.27;10.82;;;;;;;;;;4974187;28;20055;-72
2023/04/18 08:09:28;;;;;;;13.48;10.93;;;;;;;;;;4973975;28;20127;-72
2023/04/18 08:11:56;;;;;;;13.68;10.18;;;;;;;;;;4990154;28;20414;-72
2023/04/18 08:14:23;;;;;;;13.00;10.65;;;;;;;;;;4990277;28;20058;-73
2023/04/18 08:16:50;;;;;;;12.52;9.82;;;;;;;;;;4974630;28;20054;-73
2023/04/18 08:19:16;;;;;;;14.05;10.43;;;;;;;;;;4974079;28;20629;-73
2023/04/18 08:21:43;;;;;;;12.18;10.20;;;;;;;;;;4991969;28;20054;-73
2023/04/18 08:24:10;;;;;;;12.05;9.60;;;;;;;;;;4997233;28;20119;-74
2023/04/18 08:26:36;;;;;;;14.52;11.40;;;;;;;;;;4995525;28;20089;-73
2023/04/18 08:29:03;;;;;;;12.50;10.45;;;;;;;;;;4991898;28;20414;-73
2023/04/18 08:31:30;;;;;;;16.77;10.48;;;;;;;;;;4975969;28;20093;-73
2023/04/18 08:33:57;;;;;;;14.13;10.43;;;;;;;;;;4974439;28;20077;-73
2023/04/18 08:36:24;;;;;;;14.18;10.63;;;;;;;;;;4973849;28;20414;-73
2023/04/18 08:38:51;;;;;;;14.85;11.65;;;;;;;;;;4992019;28;20061;-73
2023/04/18 08:41:20;;;;;;;14.05;10.82;;;;;;;;;;4995697;28;20133;-73
2023/04/18 08:43:47;;;;;;;11.18;9.80;;;;;;;;;;4996869;28;20060;-73
2023/04/18 08:46:14;;;;;;;13.93;10.43;;;;;;;;;;4997163;28;20104;-73
2023/04/18 08:48:41;;;;;;;14.32;11.15;;;;;;;;;;4996870;28;20133;-73
2023/04/18 08:51:08;;;;;;;12.52;10.07;;;;;;;;;;4980243;28;20061;-73
2023/04/18 08:53:34;;;;;;;14.38;10.93;;;;;;;;;;4996598;28;20058;-74
2023/04/18 08:56:01;;;;;;;12.38;10.07;;;;;;;;;;4997015;28;20064;-74
2023/04/18 08:58:31;;;;;;;12.15;10.13;;;;;;;;;;4980770;28;20064;-74
2023/04/18 09:00:58;;;;;;;13.15;9.93;;;;;;;;;;4996157;28;20462;-73
2023/04/18 09:03:38;;;;;;;13.05;10.52;;;;;;;;;;4996411;28;20057;-73
2023/04/18 09:06:12;;;;;;;14.02;11.38;;;;;;;;;;4996750;28;20061;-73
2023/04/18 09:08:42;;;;;;;12.65;10.30;;;;;;;;;;4996581;28;20057;-73
2023/04/18 09:11:24;;;;;;;13.48;11.25;;;;;;;;;;4961798;28;20057;-73
2023/04/18 09:13:52;;;;;;;14.40;10.50;;;;;;;;;;4977548;28;20422;-73
2023/04/18 09:16:21;;;;;;;13.60;10.18;;;;;;;;;;4993593;28;20061;-74
2023/04/18 09:19:07;;;;;;;15.23;10.35;;;;;;;;;;4976994;28;20073;-74
2023/04/18 09:21:37;;;;;;;13.18;10.57;;;;;;;;;;4960817;28;20486;-72
2023/04/18 09:24:23;;;;;;;12.40;10.55;;;;;;;;;;4961322;28;20414;-73
2023/04/18 09:26:52;;;;;;;13.30;9.88;;;;;;;;;;4977093;28;20581;-73
2023/04/18 09:29:22;;;;;;;12.70;9.90;;;;;;;;;;4961688;28;20054;-73
2023/04/18 09:32:07;;;;;;;16.85;10.80;;;;;;;;;;4977068;28;20066;-74
2023/04/18 09:34:37;;;;;;;12.13;9.23;;;;;;;;;;4976862;28;20058;-74
2023/04/18 09:37:08;;;;;;;13.50;10.10;;;;;;;;;;4976480;28;20065;-76
2023/04/18 09:39:37;;;;;;;13.55;10.07;;;;;;;;;;4972280;28;20066;-77
2023/04/18 09:42:04;;;;;;;12.95;10.25;;;;;;;;;;4964470;28;20461;-75
2023/04/18 09:44:31;;;;;;;13.23;10.02;;;;;;;;;;4980062;28;20061;-75
2023/04/18 09:46:58;;;;;;;13.00;9.85;;;;;;;;;;4995806;28;20501;-75
2023/04/18 09:49:25;;;;;;;11.65;9.27;;;;;;;;;;4994185;28;20058;-76
2023/04/18 09:51:53;;;;;;;13.60;9.82;;;;;;;;;;4977952;28;20132;-74
2023/04/18 09:54:23;;;;;;;11.20;9.20;;;;;;;;;;4994574;28;20061;-76
2023/04/18 09:56:50;;;;;;;10.73;8.52;;;;;;;;;;4994803;28;20060;-74
2023/04/18 09:59:46;;;;;;;12.68;9.02;;;;;;;;;;4994025;28;20410;-74
2023/04/18 10:02:22;;;;;;;9.57;8.27;;;;;;;;;;4987662;28;20052;-75
2023/04/18 10:04:52;;;;;;;12.27;8.68;;;;;;;;;;4978300;28;20057;-74
2023/04/18 10:07:20;;;;;;;11.27;8.50;;;;;;;;;;4994253;28;20144;-74
2023/04/18 10:09:46;;;;;;;11.20;8.65;;;;;;;;;;4993562;28;20510;-73
2023/04/18 10:12:13;;;;;;;9.70;8.07;;;;;;;;;;4993973;28;20046;-75
2023/04/18 10:14:41;;;;;;;10.27;7.95;;;;;;;;;;5010431;28;20501;-75
2023/04/18 10:17:09;;;;;;;10.13;7.65;;;;;;;;;;4994283;28;20061;-75
2023/04/18 10:19:37;;;;;;;9.45;7.97;;;;;;;;;;4994952;28;20058;-82
2023/04/18 10:22:04;;;;;;;9.93;7.55;;;;;;;;;;4976822;28;20855;-74
2023/04/18 10:24:52;;;;;;;8.25;7.28;;;;;;;;;;4994986;28;20064;-75
2023/04/18 10:27:47;;;;;;;9.60;7.93;;;;;;;;;;4996322;28;20417;-75
2023/04/18 10:30:15;;;;;;;9.25;7.05;;;;;;;;;;4984750;28;20137;-74
2023/04/18 10:32:41;;;;;;;8.60;7.53;;;;;;;;;;4977228;28;20050;-75
2023/04/18 10:35:09;;;;;;;10.68;7.22;;;;;;;;;;4948239;28;20145;-75
2023/04/18 10:37:49;;;;;;;9.88;7.43;;;;;;;;;;4977243;28;20064;-75
2023/04/18 10:40:33;;;;;;;7.78;6.72;;;;;;;;;;4991241;28;20057;-76
2023/04/18 10:43:01;;;;;;;8.43;6.82;;;;;;;;;;4966977;28;20418;-75
2023/04/18 10:45:30;;;;;;;8.38;7.10;;;;;;;;;;4992050;28;20053;-75
2023/04/18 10:48:28;;;;;;;9.52;7.53;;;;;;;;;;4991223;28;20150;-75
2023/04/18 10:51:17;;;;;;;7.28;6.40;;;;;;;;;;4979639;28;20187;-75
2023/04/18 10:54:34;;;;;;;7.75;6.20;;;;;;;;;;4983844;28;20744;-76
2023/04/18 10:57:02;;;;;;;8.90;6.22;;;;;;;;;;4980401;28;20092;-75
2023/04/18 10:59:34;;;;;;;11.00;6.35;;;;;;;;;;4985110;28;20046;-76
2023/04/18 11:02:06;;;;;;;6.60;5.90;;;;;;;;;;5000660;28;20061;-76
2023/04/18 11:04:33;;;;;;;6.78;6.00;;;;;;;;;;4990179;28;20081;-75
2023/04/18 11:07:00;;;;;;;7.35;5.50;;;;;;;;;;4964455;28;20050;-75
2023/04/18 11:09:27;;;;;;;6.80;5.97;;;;;;;;;;4976117;28;20076;-75
2023/04/18 11:12:08;;;;;;;6.55;5.47;;;;;;;;;;4983729;28;20565;-75
2023/04/18 11:14:41;;;;;;;7.15;5.43;;;;;;;;;;4987519;28;20050;-75
2023/04/18 11:17:19;;;;;;;7.45;5.82;;;;;;;;;;4991017;28;20490;-76
2023/04/18 11:19:47;;;;;;;8.60;5.72;;;;;;;;;;4974059;28;20085;-75
2023/04/18 11:22:14;;;;;;;7.45;5.80;;;;;;;;;;4977261;28;20054;-75
2023/04/18 11:24:41;;;;;;;5.88;5.15;;;;;;;;;;4985276;28;20571;-75
2023/04/18 11:27:09;;;;;;;6.50;5.50;;;;;;;;;;5000230;28;20498;-75
2023/04/18 11:29:36;;;;;;;8.23;6.00;;;;;;;;;;4968339;28;20057;-75
2023/04/18 11:32:06;;;;;;;7.82;6.28;;;;;;;;;;4983084;28;20388;-75
2023/04/18 11:34:34;;;;;;;8.88;6.13;;;;;;;;;;4966723;28;20445;-75
2023/04/18 11:37:05;;;;;;;8.48;6.20;;;;;;;;;;4964214;28;20046;-75
2023/04/18 11:39:41;;;;;;;8.00;6.90;;;;;;;;;;4986395;28;20062;-75
2023/04/18 11:42:08;;;;;;;8.50;7.00;;;;;;;;;;5000302;28;20063;-75
2023/04/18 11:44:38;;;;;;;7.72;6.93;;;;;;;;;;4966262;28;20167;-75
2023/04/18 11:47:29;;;;;;;9.60;6.47;;;;;;;;;;4986713;28;20111;-75
2023/04/18 11:50:00;;;;;;;10.70;7.47;;;;;;;;;;4984170;28;20054;-75
2023/04/18 11:52:28;;;;;;;7.65;6.38;;;;;;;;;;4977326;28;20057;-75
2023/04/18 11:55:09;;;;;;;12.18;8.00;;;;;;;;;;4974725;28;20136;-75
2023/04/18 11:57:36;;;;;;;8.85;7.03;;;;;;;;;;4983332;28;20541;-75
2023/04/18 12:00:05;;;;;;;10.18;6.85;;;;;;;;;;4972103;28;20055;-74
2023/04/18 12:02:43;;;;;;;10.77;6.70;;;;;;;;;;4990413;28;20446;-73
2023/04/18 12:05:13;;;;;;;7.32;6.00;;;;;;;;;;4982798;28;20104;-74
2023/04/18 12:07:41;;;;;;;8.75;6.70;;;;;;;;;;4986010;28;20571;-75
2023/04/18 12:10:28;;;;;;;10.27;6.45;;;;;;;;;;4987132;28;20061;-74
2023/04/18 12:12:59;;;;;;;8.20;5.95;;;;;;;;;;4988749;28;20414;-74
2023/04/18 12:15:27;;;;;;;6.60;5.90;;;;;;;;;;4984755;28;20076;-74
2023/04/18 12:18:02;;;;;;;6.78;6.07;;;;;;;;;;4977303;28;20054;-74
2023/04/18 12:20:50;;;;;;;7.20;5.47;;;;;;;;;;4985986;28;20097;-74
2023/04/18 12:23:32;;;;;;;6.97;5.30;;;;;;;;;;5007476;28;20565;-74
2023/04/18 12:26:03;;;;;;;7.28;5.40;;;;;;;;;;4985877;28;20081;-74
2023/04/18 12:28:30;;;;;;;5.60;4.30;;;;;;;;;;5002709;28;20462;-74
2023/04/18 12:30:57;;;;;;;5.18;4.25;;;;;;;;;;4992087;28;20421;-74
2023/04/18 12:33:25;;;;;;;5.88;4.70;;;;;;;;;;4992781;28;20053;-74
2023/04/18 12:35:52;;;;;;;5.32;4.57;;;;;;;;;;4986364;28;20050;-74
2023/04/18 12:38:22;;;;;;;4.28;3.85;;;;;;;;;;4986723;28;20054;-74
2023/04/18 12:40:50;;;;;;;4.30;3.63;;;;;;;;;;4992244;28;20073;-74
2023/04/18 12:43:17;;;;;;;4.75;3.67;;;;;;;;;;4988131;28;20054;-74
2023/04/18 12:45:48;;;;;;;5.07;3.80;;;;;;;;;;4985721;28;20137;-74
2023/04/18 12:48:16;;;;;;;5.15;3.55;;;;;;;;;;4986351;28;20124;-74
2023/04/18 12:50:43;;;;;;;4.20;3.70;;;;;;;;;;4975855;28;20057;-74
2023/04/18 12:53:10;;;;;;;4.15;3.70;;;;;;;;;;4993589;28;20054;-74
2023/04/18 12:55:37;;;;;;;3.53;3.22;;;;;;;;;;4976129;28;20058;-75
2023/04/18 12:58:04;;;;;;;3.53;3.22;;;;;;;;;;4991680;28;20054;-75
2023/04/18 13:00:31;;;;;;;4.63;3.72;;;;;;;;;;4992347;28;20069;-75
2023/04/18 13:02:59;;;;;;;3.60;3.15;;;;;;;;;;4963238;28;20045;-75
2023/04/18 13:05:27;;;;;;;4.45;3.63;;;;;;;;;;4970397;28;20049;-75
2023/04/18 13:07:58;;;;;;;4.05;3.13;;;;;;;;;;4973309;28;20391;-75
2023/04/18 13:10:42;;;;;;;3.47;2.80;;;;;;;;;;4990561;28;20054;-75
2023/04/18 13:13:09;;;;;;;3.17;2.78;;;;;;;;;;4978481;28;20061;-75
2023/04/18 13:15:36;;;;;;;4.05;3.28;;;;;;;;;;4970117;28;20399;-76
2023/04/18 13:18:04;;;;;;;3.88;3.17;;;;;;;;;;4984995;28;20061;-76
2023/04/18 13:20:32;;;;;;;5.13;3.33;;;;;;;;;;4991127;28;20057;-75
2023/04/18 13:23:01;;;;;;;3.83;3.20;;;;;;;;;;4969916;28;20046;-75
2023/04/18 13:25:28;;;;;;;4.88;3.45;;;;;;;;;;4987357;28;20057;-75
2023/04/18 13:27:57;;;;;;;4.15;3.20;;;;;;;;;;4959931;28;20046;-74
2023/04/18 13:30:24;;;;;;;6.68;3.70;;;;;;;;;;4993472;28;20061;-75
2023/04/18 13:32:51;;;;;;;4.40;2.80;;;;;;;;;;4985044;28;20054;-74
2023/04/18 13:35:18;;;;;;;3.67;3.28;;;;;;;;;;5001543;28;20062;-74
2023/04/18 13:37:45;;;;;;;5.47;3.53;;;;;;;;;;4982716;28;20635;-75
2023/04/18 13:40:12;;;;;;;3.78;3.33;;;;;;;;;;4976649;28;20105;-76
2023/04/18 13:42:39;;;;;;;3.67;3.20;;;;;;;;;;4978429;28;20126;-74
2023/04/18 13:45:06;;;;;;;3.95;3.10;;;;;;;;;;5001808;28;20068;-75
2023/04/18 13:47:33;;;;;;;3.63;3.33;;;;;;;;;;4999119;28;20050;-75
2023/04/18 13:50:00;;;;;;;3.40;3.10;;;;;;;;;;4986211;28;20088;-76
2023/04/18 13:52:27;;;;;;;3.72;2.90;;;;;;;;;;4985115;28;20498;-75
2023/04/18 13:54:54;;;;;;;4.88;3.90;;;;;;;;;;4969487;28;20387;-76
2023/04/18 13:57:21;;;;;;;3.95;3.47;;;;;;;;;;4990870;28;20057;-77
2023/04/18 13:59:48;;;;;;;5.53;4.35;;;;;;;;;;4967465;28;20413;-77
2023/04/18 14:02:15;;;;;;;4.18;3.78;;;;;;;;;;4984394;28;20058;-74
2023/04/18 14:04:42;;;;;;;3.75;3.30;;;;;;;;;;4992779;28;20142;-73
2023/04/18 14:07:09;;;;;;;4.00;3.58;;;;;;;;;;4983768;28;20064;-74
2023/04/18 14:09:36;;;;;;;4.63;3.47;;;;;;;;;;4994608;28;20060;-73
2023/04/18 14:12:03;;;;;;;7.07;4.07;;;;;;;;;;4968816;28;20557;-74
2023/04/18 14:14:30;;;;;;;6.57;4.10;;;;;;;;;;4982035;28;20124;-74
2023/04/18 14:16:57;;;;;;;5.10;3.53;;;;;;;;;;4992013;28;20060;-75
2023/04/18 14:19:25;;;;;;;3.38;2.97;;;;;;;;;;4990169;28;20054;-75
2023/04/18 14:21:52;;;;;;;4.90;3.40;;;;;;;;;;4974329;28;20104;-74
2023/04/18 14:24:20;;;;;;;4.05;3.65;;;;;;;;;;4991180;28;20057;-75
2023/04/18 14:26:47;;;;;;;3.78;3.38;;;;;;;;;;4971485;28;20059;-74
2023/04/18 14:29:14;;;;;;;5.43;3.33;;;;;;;;;;4992039;28;20399;-74
2023/04/18 14:31:42;;;;;;;3.75;3.05;;;;;;;;;;4992139;28;20046;-75
2023/04/18 14:34:09;;;;;;;3.20;2.90;;;;;;;;;;4991270;28;20089;-75